createdAt,value
2022-12-06T00:01:25.784Z,5.80
2022-12-06T00:03:55.678Z,5.80
2022-12-06T00:06:24.529Z,5.80
2022-12-06T00:08:52.667Z,5.90
2022-12-06T00:11:22.739Z,5.90
2022-12-06T00:13:54.366Z,5.90
2022-12-06T00:21:22.486Z,5.80
2022-12-06T00:23:53.064Z,5.70
2022-12-06T00:26:21.639Z,5.70
2022-12-06T00:31:18.428Z,5.70
2022-12-06T00:36:20.220Z,5.70
2022-12-06T00:41:17.466Z,5.70
2022-12-06T00:43:45.411Z,5.50
2022-12-06T00:46:17.815Z,5.50
2022-12-06T00:48:46.153Z,5.50
2022-12-06T01:01:15.997Z,5.50
2022-12-06T01:03:44.318Z,5.50
2022-12-06T01:06:14.897Z,5.60
2022-12-06T01:08:42.814Z,5.60
2022-12-06T01:13:37.584Z,5.70
2022-12-06T01:16:09.864Z,5.70
2022-12-06T01:18:37.381Z,5.70
2022-12-06T01:21:10.016Z,5.80
2022-12-06T01:23:36.946Z,5.80
2022-12-06T01:26:06.013Z,5.80
2022-12-06T01:43:35.079Z,5.80
2022-12-06T01:46:26.426Z,5.70
2022-12-06T01:49:13.514Z,5.70
2022-12-06T01:51:45.914Z,5.60
2022-12-06T01:54:14.758Z,5.60
2022-12-06T01:59:10.343Z,5.60
2022-12-06T02:01:39.316Z,5.50
2022-12-06T02:04:07.177Z,5.50
2022-12-06T02:09:05.192Z,5.50
2022-12-06T02:11:35.207Z,5.50
2022-12-06T02:14:04.761Z,5.50
2022-12-06T02:16:46.582Z,5.50
2022-12-06T02:19:35.836Z,5.50
2022-12-06T02:24:54.130Z,5.50
2022-12-06T02:27:32.706Z,5.50
2022-12-06T02:30:18.174Z,5.50
2022-12-06T02:32:57.194Z,5.50
2022-12-06T02:35:55.468Z,5.50
2022-12-06T02:38:36.260Z,5.60
2022-12-06T02:41:12.194Z,5.50
2022-12-06T02:43:45.918Z,5.50
2022-12-06T02:46:15.007Z,5.50
2022-12-06T02:48:45.558Z,5.50
2022-12-06T02:51:15.792Z,5.50
2022-12-06T02:53:47.373Z,5.60
2022-12-06T02:56:16.625Z,5.60
2022-12-06T02:58:43.531Z,5.60
2022-12-06T03:01:39.841Z,5.60
2022-12-06T03:04:34.997Z,5.60
2022-12-06T03:07:29.324Z,5.50
2022-12-06T03:10:27.389Z,5.50
2022-12-06T03:15:40.808Z,5.60
2022-12-06T03:18:31.988Z,5.60
2022-12-06T03:21:13.646Z,5.70
2022-12-06T03:23:45.318Z,5.70
2022-12-06T03:26:16.717Z,5.70
2022-12-06T03:28:46.972Z,5.70
2022-12-06T03:31:14.371Z,5.70
2022-12-06T03:33:55.145Z,5.60
2022-12-06T03:36:23.464Z,5.60
2022-12-06T03:39:02.799Z,5.70
2022-12-06T03:41:36.445Z,5.70
2022-12-06T03:44:03.950Z,5.60
2022-12-06T03:46:35.391Z,5.70
2022-12-06T03:49:06.828Z,5.70
2022-12-06T03:51:36.562Z,5.80
2022-12-06T03:54:06.765Z,5.70
2022-12-06T03:56:36.897Z,5.40
2022-12-06T03:59:08.973Z,5.80
2022-12-06T04:04:04.261Z,5.80
2022-12-06T04:06:31.365Z,5.70
2022-12-06T04:14:13.020Z,5.70
2022-12-06T04:22:11.696Z,5.70
2022-12-06T04:46:14.017Z,5.40
2022-12-06T04:48:41.341Z,5.30
2022-12-06T05:10:52.323Z,5.60
2022-12-06T05:13:20.283Z,5.60
2022-12-06T05:15:56.289Z,5.70
2022-12-06T05:20:51.359Z,5.70
2022-12-06T05:25:45.598Z,5.60
2022-12-06T05:50:18.972Z,5.40
2022-12-06T05:55:15.507Z,5.30
2022-12-06T05:57:47.259Z,5.30
2022-12-06T06:00:15.477Z,5.30
2022-12-06T06:10:06.428Z,5.30
2022-12-06T06:12:33.465Z,5.20
2022-12-06T06:49:24.822Z,5.10
2022-12-06T07:04:08.539Z,5.00
2022-12-06T07:23:46.807Z,4.90
2022-12-06T07:26:19.240Z,5.00
2022-12-06T07:28:47.720Z,5.00
2022-12-06T07:31:15.832Z,5.00
2022-12-06T07:36:13.229Z,5.00
2022-12-06T07:38:47.553Z,5.00
2022-12-06T07:49:17.198Z,5.00
2022-12-06T07:51:45.749Z,5.00
2022-12-06T08:01:35.579Z,5.00
2022-12-06T08:04:05.034Z,5.10
2022-12-06T08:26:16.171Z,5.10
2022-12-06T08:31:16.844Z,5.10
2022-12-06T08:36:20.069Z,5.10
2022-12-06T08:38:49.003Z,5.10
2022-12-06T08:44:02.768Z,5.20
2022-12-06T08:46:31.266Z,5.20
2022-12-06T08:48:58.593Z,5.20
2022-12-06T09:01:21.388Z,5.10
2022-12-06T09:03:48.427Z,5.10
2022-12-06T09:13:38.858Z,5.10
2022-12-06T09:16:14.532Z,5.10
2022-12-06T09:21:12.310Z,5.10
2022-12-06T09:23:39.353Z,5.10
2022-12-06T09:26:07.253Z,5.10
2022-12-06T09:28:39.578Z,5.10
2022-12-06T09:31:08.187Z,5.00
2022-12-06T09:36:13.971Z,5.00
2022-12-06T09:38:42.990Z,5.10
2022-12-06T09:41:29.272Z,5.10
2022-12-06T09:44:37.938Z,5.00
2022-12-06T09:52:37.759Z,5.10
2022-12-06T09:55:30.960Z,5.10
2022-12-06T10:01:12.299Z,5.10
2022-12-06T10:06:15.998Z,5.10
2022-12-06T10:08:49.020Z,5.10
2022-12-06T10:11:58.407Z,5.10
2022-12-06T10:14:55.027Z,5.20
2022-12-06T10:17:52.079Z,5.20
2022-12-06T10:20:37.787Z,5.20
2022-12-06T10:23:30.514Z,5.20
2022-12-06T10:26:30.467Z,5.30
2022-12-06T10:37:06.110Z,5.40
2022-12-06T10:39:57.708Z,5.40
2022-12-06T10:42:37.241Z,5.40
2022-12-06T10:45:46.425Z,5.40
2022-12-06T10:48:26.412Z,5.40
2022-12-06T10:51:09.699Z,5.40
2022-12-06T10:54:20.277Z,5.50
2022-12-06T10:56:51.629Z,5.40
2022-12-06T10:59:37.135Z,5.40
2022-12-06T11:05:58.085Z,5.50
2022-12-06T11:09:19.569Z,5.50
2022-12-06T11:14:38.343Z,5.50
2022-12-06T11:17:16.092Z,5.50
2022-12-06T11:19:49.770Z,5.60
2022-12-06T11:25:16.534Z,5.50
2022-12-06T11:27:52.409Z,5.60
2022-12-06T11:30:21.132Z,5.60
2022-12-06T11:32:52.559Z,5.60
2022-12-06T11:35:25.468Z,5.60
2022-12-06T11:38:01.100Z,5.60
2022-12-06T11:40:37.818Z,5.50
2022-12-06T11:43:08.294Z,5.50
2022-12-06T11:45:39.802Z,5.70
2022-12-06T11:48:19.221Z,6.30
2022-12-06T11:50:48.422Z,5.60
2022-12-06T11:53:30.577Z,5.70
2022-12-06T11:56:03.430Z,5.60
2022-12-06T11:58:43.907Z,5.60
2022-12-06T12:01:14.586Z,5.70
2022-12-06T12:03:43.935Z,5.60
2022-12-06T12:06:27.598Z,5.70
2022-12-06T12:09:05.151Z,5.60
2022-12-06T12:11:34.911Z,5.70
2022-12-06T12:14:13.378Z,5.60
2022-12-06T12:16:49.915Z,5.60
2022-12-06T12:19:40.251Z,5.60
2022-12-06T12:22:22.507Z,6.50
2022-12-06T12:27:49.470Z,5.60
2022-12-06T12:30:35.709Z,5.60
2022-12-06T12:33:07.522Z,5.60
2022-12-06T12:50:05.008Z,5.90
2022-12-06T12:59:42.697Z,6.00
2022-12-06T13:02:40.804Z,6.00
2022-12-06T13:05:44.885Z,6.00
2022-12-06T13:08:19.196Z,6.00
2022-12-06T13:10:58.523Z,6.00
2022-12-06T13:13:30.847Z,6.00
2022-12-06T13:16:00.199Z,5.90
2022-12-06T13:18:39.303Z,7.00
2022-12-06T13:21:22.666Z,5.90
2022-12-06T13:23:57.029Z,7.60
2022-12-06T13:26:39.278Z,6.00
2022-12-06T13:29:24.098Z,5.30
2022-12-06T13:31:53.810Z,5.90
2022-12-06T13:34:38.932Z,6.20
2022-12-06T13:37:28.971Z,5.90
2022-12-06T13:39:59.727Z,5.90
2022-12-06T13:42:29.887Z,6.00
2022-12-06T13:44:59.948Z,5.90
2022-12-06T13:49:58.786Z,5.90
2022-12-06T13:52:47.102Z,5.90
2022-12-06T13:55:26.514Z,6.00
2022-12-06T13:57:56.492Z,6.00
2022-12-06T14:00:29.658Z,7.20
2022-12-06T14:03:13.340Z,6.00
2022-12-06T14:08:27.377Z,6.00
2022-12-06T14:11:16.481Z,6.00
2022-12-06T14:17:04.910Z,6.00
2022-12-06T14:19:46.323Z,5.90
2022-12-06T14:22:35.045Z,5.90
2022-12-06T14:27:45.143Z,5.80
2022-12-06T14:30:26.169Z,5.80
2022-12-06T14:33:03.034Z,5.70
2022-12-06T14:35:36.191Z,5.70
2022-12-06T14:38:32.658Z,5.80
2022-12-06T14:46:21.303Z,5.70
2022-12-06T14:51:48.932Z,5.70
2022-12-06T14:54:42.012Z,5.70
2022-12-06T14:57:49.106Z,5.70
2022-12-06T15:00:27.470Z,5.80
2022-12-06T15:06:12.400Z,5.80
2022-12-06T15:08:55.347Z,5.80
2022-12-06T15:11:48.680Z,5.90
2022-12-06T15:17:25.218Z,5.90
2022-12-06T15:19:53.838Z,5.90
2022-12-06T15:22:29.271Z,6.00
2022-12-06T15:25:00.518Z,6.10
2022-12-06T15:32:25.083Z,6.10
2022-12-06T15:40:08.762Z,6.10
2022-12-06T15:57:28.550Z,6.10
2022-12-06T16:00:14.516Z,6.10
2022-12-06T16:05:19.205Z,6.30
2022-12-06T16:21:30.821Z,6.30
2022-12-06T16:24:13.057Z,6.20
2022-12-06T16:26:44.056Z,6.30
2022-12-06T16:29:12.811Z,4.20
2022-12-06T16:37:02.980Z,6.20
2022-12-06T16:39:32.256Z,6.30
2022-12-06T16:49:46.978Z,6.20
2022-12-06T16:57:14.800Z,6.50
2022-12-06T16:59:57.314Z,6.20
2022-12-06T17:02:31.950Z,6.10
2022-12-06T17:05:01.567Z,6.10
2022-12-06T17:07:32.235Z,6.20
2022-12-06T17:10:00.649Z,6.20
2022-12-06T17:22:51.490Z,6.20
2022-12-06T17:25:38.634Z,6.20
2022-12-06T17:31:35.925Z,6.10
2022-12-06T17:49:48.744Z,6.20
2022-12-06T17:52:42.389Z,6.10
2022-12-06T17:55:24.518Z,6.00
2022-12-06T17:58:09.695Z,6.00
2022-12-06T18:57:37.599Z,5.80
2022-12-06T19:00:06.725Z,5.80
2022-12-06T20:14:45.120Z,5.40
2022-12-06T20:17:14.519Z,5.50
2022-12-06T20:19:51.924Z,5.50
2022-12-06T20:22:19.780Z,5.50
2022-12-06T20:39:36.185Z,5.40
2022-12-06T20:42:05.764Z,5.40
2022-12-06T21:04:19.077Z,5.60
2022-12-06T21:06:45.986Z,5.50
2022-12-06T21:19:07.930Z,5.60
2022-12-06T21:21:40.323Z,5.60
2022-12-06T21:24:13.109Z,5.60
2022-12-06T21:29:31.464Z,5.60
2022-12-06T21:32:00.938Z,5.70
2022-12-06T22:01:30.941Z,5.70
2022-12-06T22:04:01.479Z,5.70
2022-12-06T22:06:28.325Z,5.70
2022-12-06T22:09:01.492Z,5.70
2022-12-06T22:11:30.046Z,5.70
2022-12-06T22:13:59.180Z,5.70
2022-12-06T22:21:25.379Z,5.70
2022-12-06T22:26:22.373Z,5.70
2022-12-06T22:28:50.351Z,5.80
2022-12-06T22:31:24.090Z,5.80
2022-12-06T22:36:21.008Z,5.80
2022-12-06T22:38:52.373Z,5.70
2022-12-06T22:41:20.093Z,5.70
2022-12-06T22:43:50.763Z,5.80
2022-12-06T22:51:24.699Z,5.70
2022-12-06T22:53:57.638Z,5.70
2022-12-06T22:58:54.097Z,5.80
2022-12-06T23:01:23.580Z,5.80
2022-12-06T23:03:52.418Z,5.80
2022-12-06T23:06:22.215Z,5.80
2022-12-06T23:11:29.021Z,5.80
2022-12-06T23:16:26.606Z,5.80
2022-12-06T23:21:23.480Z,5.80
2022-12-06T23:23:52.912Z,5.80
2022-12-06T23:26:25.096Z,5.80
2022-12-06T23:31:22.414Z,5.80
2022-12-06T23:33:56.603Z,5.80
2022-12-06T23:36:26.756Z,5.80
2022-12-06T23:41:24.036Z,5.80
2022-12-06T23:46:22.627Z,5.80
2022-12-06T23:48:50.885Z,5.80
2022-12-06T23:51:20.653Z,5.80
2022-12-06T23:53:57.427Z,5.90
2022-12-06T23:56:25.890Z,5.90
